Time;durP1;ratioP1;P1;durP2;ratioP2;P2;SDS_P1;SDS_P2;PMS_P1;PMS_P2;Temp;Humidity;BMP_temperature;BMP_pressure;BME280_temperature;BME280_humidity;BME280_pressure;Samples;Min_cycle;Max_cycle;Signal;HPM_P1;HPM_P2
2023/05/10 00:01:21;;;;;;;5.85;2.50;;;19.30;75.70;;;;;;10905103;32;20031;-73
2023/05/10 00:07:23;;;;;;;6.15;2.58;;;19.20;75.90;;;;;;10895789;32;20306;-73
2023/05/10 00:13:25;;;;;;;2.47;1.70;;;19.10;75.90;;;;;;10894753;32;20042;-73
2023/05/10 00:19:27;;;;;;;2.83;1.98;;;19.10;76.70;;;;;;10905791;32;20027;-72
2023/05/10 00:25:30;;;;;;;4.53;2.50;;;19.10;76.30;;;;;;10907073;32;20028;-74
2023/05/10 00:31:32;;;;;;;4.25;2.15;;;19.10;76.20;;;;;;10903625;32;20471;-73
2023/05/10 00:37:34;;;;;;;2.75;1.98;;;19.00;75.60;;;;;;10904811;32;20054;-75
2023/05/10 00:43:36;;;;;;;3.00;2.08;;;19.00;76.00;;;;;;10906641;32;20530;-72
2023/05/10 00:49:40;;;;;;;2.65;1.70;;;19.00;76.30;;;;;;10902664;32;20023;-73
2023/05/10 00:55:42;;;;;;;4.37;2.25;;;19.00;76.30;;;;;;10901649;32;20028;-73
2023/05/10 01:01:45;;;;;;;4.07;1.87;;;18.90;77.00;;;;;;10902943;32;20045;-75
2023/05/10 01:07:48;;;;;;;1.60;1.48;;;18.90;76.70;;;;;;10902590;32;20325;-76
2023/05/10 01:13:55;;;;;;;2.12;1.45;;;18.80;76.40;;;;;;10901542;32;20377;-74
2023/05/10 01:19:57;;;;;;;2.57;1.73;;;18.80;76.60;;;;;;10905736;32;20154;-73
2023/05/10 01:26:15;;;;;;;2.95;1.80;;;18.80;76.80;;;;;;10905010;32;20024;-74
2023/05/10 01:32:26;;;;;;;2.90;1.98;;;18.80;77.30;;;;;;10904975;32;20378;-73
2023/05/10 01:38:38;;;;;;;0.93;0.93;;;18.90;78.10;;;;;;10891942;32;20023;-73
2023/05/10 01:45:00;;;;;;;1.98;1.50;;;19.00;78.40;;;;;;10901369;32;20061;-73
2023/05/10 01:51:03;;;;;;;1.73;1.30;;;19.00;78.40;;;;;;10889000;32;20039;-73
2023/05/10 01:57:08;;;;;;;1.20;0.95;;;19.10;78.90;;;;;;10904813;32;20428;-73
2023/05/10 02:03:11;;;;;;;1.98;1.20;;;19.10;79.20;;;;;;10904869;32;20420;-73
2023/05/10 02:09:15;;;;;;;2.30;1.40;;;19.00;79.50;;;;;;10913289;32;20011;-73
2023/05/10 02:15:22;;;;;;;1.58;1.33;;;19.00;80.00;;;;;;10917078;32;20020;-73
2023/05/10 02:21:25;;;;;;;2.97;1.35;;;19.00;80.40;;;;;;10915310;32;20042;-73
2023/05/10 02:27:28;;;;;;;1.33;1.23;;;19.10;80.70;;;;;;10916869;32;20045;-73
2023/05/10 02:33:32;;;;;;;1.45;1.33;;;19.00;80.70;;;;;;10913843;32;20008;-73
2023/05/10 02:39:35;;;;;;;1.30;1.20;;;18.90;80.80;;;;;;10914121;32;20057;-73
2023/05/10 02:45:40;;;;;;;3.12;1.60;;;18.90;80.60;;;;;;10916706;32;20317;-73
2023/05/10 02:51:47;;;;;;;4.20;1.30;;;18.80;81.00;;;;;;10913385;32;20041;-73
2023/05/10 02:57:56;;;;;;;2.95;1.75;;;18.80;81.10;;;;;;10913435;32;20049;-73
2023/05/10 03:03:58;;;;;;;1.87;1.40;;;18.70;80.80;;;;;;10915671;32;20427;-73
2023/05/10 03:10:01;;;;;;;2.40;1.95;;;18.70;81.00;;;;;;10912637;32;20019;-73
2023/05/10 03:16:16;;;;;;;3.28;1.85;;;18.60;81.00;;;;;;10915373;32;20049;-73
2023/05/10 03:22:41;;;;;;;1.95;1.40;;;18.60;81.20;;;;;;10894593;32;20034;-73
2023/05/10 03:28:44;;;;;;;2.28;1.77;;;18.50;81.30;;;;;;10878350;32;20027;-73
2023/05/10 03:34:46;;;;;;;3.53;1.90;;;18.50;81.50;;;;;;10908950;32;20054;-73
2023/05/10 03:40:48;;;;;;;1.95;1.40;;;18.50;81.50;;;;;;10894170;32;20058;-73
2023/05/10 03:46:50;;;;;;;2.45;1.60;;;18.40;81.70;;;;;;10892989;32;20038;-73
2023/05/10 03:52:53;;;;;;;2.72;1.58;;;18.50;81.90;;;;;;10908036;32;20054;-73
2023/05/10 03:58:55;;;;;;;1.75;1.15;;;18.50;81.60;;;;;;10908665;32;20061;-73
2023/05/10 04:04:57;;;;;;;1.42;1.33;;;18.50;81.40;;;;;;10907332;32;20040;-72
2023/05/10 04:11:07;;;;;;;2.65;1.60;;;18.50;81.40;;;;;;10907870;32;20401;-73
2023/05/10 04:17:10;;;;;;;1.90;1.73;;;18.40;81.40;;;;;;10891451;32;20046;-72
2023/05/10 04:23:13;;;;;;;3.05;1.90;;;18.30;81.40;;;;;;10905029;32;20027;-73
2023/05/10 04:29:17;;;;;;;3.17;1.35;;;18.30;81.50;;;;;;10891335;32;20093;-72
2023/05/10 04:35:19;;;;;;;1.90;1.30;;;18.30;81.60;;;;;;10907657;32;20031;-73
2023/05/10 04:41:21;;;;;;;5.35;2.50;;;18.30;82.00;;;;;;10907330;32;20341;-73
2023/05/10 04:47:23;;;;;;;3.50;2.00;;;18.20;81.70;;;;;;10892226;32;20062;-72
2023/05/10 04:53:40;;;;;;;1.98;1.52;;;18.20;81.60;;;;;;10906218;32;20065;-73
2023/05/10 04:59:42;;;;;;;1.73;1.50;;;18.20;81.60;;;;;;10889935;32;20039;-72
2023/05/10 05:05:44;;;;;;;1.50;1.30;;;18.20;81.70;;;;;;10904886;32;20023;-72
2023/05/10 05:11:53;;;;;;;1.98;1.70;;;18.20;81.60;;;;;;10903287;32;20101;-72
2023/05/10 05:17:57;;;;;;;2.58;1.75;;;18.20;81.80;;;;;;10892715;32;20045;-72
2023/05/10 05:23:59;;;;;;;5.75;2.15;;;18.10;82.20;;;;;;10871413;32;20031;-72
2023/05/10 05:30:11;;;;;;;1.50;1.30;;;18.00;82.30;;;;;;10866883;32;20023;-72
2023/05/10 05:36:13;;;;;;;2.45;1.73;;;18.00;82.40;;;;;;10868128;32;20058;-72
2023/05/10 05:42:16;;;;;;;3.10;1.85;;;18.00;82.40;;;;;;10861269;32;20062;-72
2023/05/10 05:48:18;;;;;;;3.25;2.17;;;18.00;82.40;;;;;;10866526;32;20333;-70
2023/05/10 05:54:20;;;;;;;2.55;1.83;;;17.90;82.50;;;;;;10866672;32;20050;-72
2023/05/10 06:00:22;;;;;;;1.65;1.30;;;17.90;82.40;;;;;;10865959;32;20326;-72
2023/05/10 06:06:51;;;;;;;2.30;1.65;;;17.80;82.60;;;;;;10862823;32;20019;-71
2023/05/10 06:12:53;;;;;;;1.90;1.70;;;17.80;82.70;;;;;;10864394;32;20028;-72
2023/05/10 06:19:01;;;;;;;2.60;1.85;;;17.80;82.80;;;;;;10897211;32;20046;-72
2023/05/10 06:25:06;;;;;;;2.03;1.50;;;17.80;82.60;;;;;;10889803;32;20027;-73
2023/05/10 06:31:11;;;;;;;1.70;1.60;;;17.90;82.80;;;;;;10901759;32;20023;-73
2023/05/10 06:37:15;;;;;;;3.00;2.00;;;17.80;82.50;;;;;;10904469;32;20033;-73
2023/05/10 06:43:17;;;;;;;1.92;1.73;;;17.80;82.80;;;;;;10904964;32;20015;-72
2023/05/10 06:49:19;;;;;;;2.53;1.75;;;17.80;83.00;;;;;;10889861;32;20042;-72
2023/05/10 06:55:21;;;;;;;2.85;1.52;;;17.70;83.00;;;;;;10907466;32;20016;-71
2023/05/10 07:01:23;;;;;;;2.15;1.37;;;17.70;83.20;;;;;;10909815;32;20016;-71
2023/05/10 07:07:25;;;;;;;3.58;2.40;;;17.70;83.20;;;;;;10909699;32;20023;-72
2023/05/10 07:13:27;;;;;;;3.03;1.75;;;17.70;83.40;;;;;;10895804;32;20089;-72
2023/05/10 07:19:29;;;;;;;3.12;2.35;;;17.70;83.20;;;;;;10908885;32;20050;-71
2023/05/10 07:25:32;;;;;;;3.67;2.58;;;17.60;83.40;;;;;;10893560;32;20086;-71
2023/05/10 07:31:34;;;;;;;3.53;2.80;;;17.60;83.40;;;;;;10905777;32;20019;-71
2023/05/10 07:37:36;;;;;;;3.97;2.47;;;17.50;83.30;;;;;;10908325;32;20020;-72
2023/05/10 07:43:38;;;;;;;2.60;2.05;;;17.50;83.40;;;;;;10908890;32;20295;-72
2023/05/10 07:49:40;;;;;;;5.60;2.20;;;17.30;83.20;;;;;;10643789;27;8735886;-72
2023/05/10 07:55:42;;;;;;;3.12;2.50;;;17.30;83.50;;;;;;10871273;32;20394;-72
2023/05/10 08:01:45;;;;;;;7.60;3.20;;;17.30;83.50;;;;;;10869308;32;20432;-73
2023/05/10 08:07:46;;;;;;;5.37;2.45;;;17.30;83.70;;;;;;10867460;32;20060;-72
2023/05/10 08:13:52;;;;;;;4.65;2.65;;;17.20;83.80;;;;;;10869960;32;20045;-72
2023/05/10 08:20:02;;;;;;;4.47;3.22;;;17.20;83.80;;;;;;10870253;32;20042;-73
2023/05/10 08:26:04;;;;;;;4.70;2.70;;;17.00;84.10;;;;;;10869615;32;20043;-73
2023/05/10 08:32:06;;;;;;;4.78;2.87;;;17.00;84.40;;;;;;10868676;32;20027;-74
2023/05/10 08:38:08;;;;;;;4.55;3.05;;;17.00;84.30;;;;;;10855677;32;20089;-75
2023/05/10 08:44:11;;;;;;;3.15;2.47;;;17.10;84.20;;;;;;10869600;32;20020;-74
2023/05/10 08:50:39;;;;;;;3.80;2.90;;;17.10;84.30;;;;;;10874598;32;20020;-73
2023/05/10 08:56:41;;;;;;;2.92;2.22;;;17.10;84.10;;;;;;10906458;32;20397;-73
2023/05/10 09:02:45;;;;;;;5.80;3.55;;;17.00;84.30;;;;;;10902958;32;20045;-73
2023/05/10 09:08:50;;;;;;;5.78;3.45;;;17.00;84.30;;;;;;10875790;32;20096;-74
2023/05/10 09:14:55;;;;;;;5.37;3.35;;;16.80;84.30;;;;;;10904059;32;20038;-73
2023/05/10 09:20:57;;;;;;;5.25;4.10;;;16.80;84.80;;;;;;10902049;32;20377;-73
2023/05/10 09:27:02;;;;;;;6.00;4.40;;;16.70;84.70;;;;;;10890937;32;20031;-72
2023/05/10 09:33:04;;;;;;;5.32;3.85;;;16.70;84.80;;;;;;10905846;32;20015;-76
2023/05/10 09:39:06;;;;;;;6.62;5.15;;;16.70;84.70;;;;;;10905741;32;20436;-73
2023/05/10 09:45:09;;;;;;;5.40;3.55;;;16.60;84.90;;;;;;10900528;32;20058;-72
2023/05/10 09:51:18;;;;;;;4.12;3.03;;;16.60;85.10;;;;;;10905151;32;20015;-75
2023/05/10 09:57:21;;;;;;;11.68;5.45;;;16.70;85.10;;;;;;10863407;32;20054;-74
2023/05/10 10:03:24;;;;;;;5.82;4.32;;;16.70;84.90;;;;;;10867156;32;20019;-74
2023/05/10 10:09:28;;;;;;;4.97;3.78;;;16.60;85.10;;;;;;10867183;32;20337;-73
2023/05/10 10:15:35;;;;;;;8.32;5.97;;;16.50;84.70;;;;;;10851787;32;20031;-76
2023/05/10 10:21:38;;;;;;;6.05;2.55;;;16.40;85.00;;;;;;10867670;32;20074;-74
2023/05/10 10:27:57;;;;;;;4.55;3.28;;;16.40;85.10;;;;;;10869637;32;20024;-73
2023/05/10 10:34:13;;;;;;;9.18;6.82;;;16.50;85.00;;;;;;10872084;32;20448;-73
2023/05/10 10:40:31;;;;;;;6.03;4.05;;;16.50;84.90;;;;;;10874667;32;20038;-72
2023/05/10 10:46:34;;;;;;;4.87;3.15;;;16.30;85.30;;;;;;10874558;32;20019;-74
2023/05/10 10:52:37;;;;;;;5.32;4.65;;;16.40;85.50;;;;;;10857519;32;20027;-75
2023/05/10 10:58:41;;;;;;;5.65;4.28;;;16.40;85.20;;;;;;10854516;32;20401;-74
2023/05/10 11:04:46;;;;;;;5.03;3.20;;;16.30;85.20;;;;;;10916622;32;20049;-74
2023/05/10 11:11:08;;;;;;;8.98;4.85;;;16.30;85.40;;;;;;10923681;32;20333;-74
2023/05/10 11:17:25;;;;;;;6.12;4.10;;;16.30;85.50;;;;;;10909978;32;20011;-75
2023/05/10 11:23:31;;;;;;;5.50;4.20;;;16.30;85.70;;;;;;10910234;32;20023;-73
2023/05/10 11:29:33;;;;;;;6.55;4.62;;;16.40;85.70;;;;;;10910235;32;20015;-74
2023/05/10 11:36:06;;;;;;;9.98;5.22;;;16.50;85.70;;;;;;10909596;32;20016;-77
2023/05/10 11:42:11;;;;;;;7.20;5.32;;;16.50;85.60;;;;;;10909201;32;20051;-74
2023/05/10 11:48:13;;;;;;;7.87;6.50;;;16.40;85.40;;;;;;10896186;32;20047;-74
2023/05/10 11:54:17;;;;;;;5.18;3.45;;;16.30;85.90;;;;;;10895540;32;20042;-73
2023/05/10 12:00:23;;;;;;;7.90;6.60;;;16.20;86.10;;;;;;10909099;32;20031;-72
2023/05/10 12:06:29;;;;;;;7.47;4.03;;;16.20;85.70;;;;;;10907995;32;20019;-71
2023/05/10 12:12:47;;;;;;;7.57;5.15;;;16.10;85.80;;;;;;10908293;32;20015;-74
2023/05/10 12:18:50;;;;;;;7.90;6.00;;;16.10;85.90;;;;;;10895522;32;20019;-74
2023/05/10 12:24:52;;;;;;;10.18;7.47;;;16.00;86.00;;;;;;10907201;32;20011;-75
2023/05/10 12:31:11;;;;;;;7.32;5.37;;;16.00;86.20;;;;;;10907172;32;20291;-74
2023/05/10 12:37:13;;;;;;;6.60;4.33;;;16.00;86.20;;;;;;10907744;32;20359;-75
2023/05/10 12:43:17;;;;;;;8.27;5.12;;;16.00;86.20;;;;;;10895089;32;20016;-74
2023/05/10 12:49:20;;;;;;;9.13;5.65;;;16.10;86.40;;;;;;10907731;32;20428;-74
2023/05/10 12:55:25;;;;;;;7.75;4.95;;;16.10;86.30;;;;;;10906358;32;20417;-73
2023/05/10 13:01:27;;;;;;;5.18;3.58;;;16.10;86.50;;;;;;10893332;32;20409;-74
2023/05/10 13:07:56;;;;;;;7.22;4.68;;;16.00;86.30;;;;;;10906094;32;20057;-73
2023/05/10 13:14:00;;;;;;;7.63;4.80;;;16.00;86.60;;;;;;10893000;32;20073;-74
2023/05/10 13:20:03;;;;;;;11.50;9.40;;;16.10;86.40;;;;;;10906891;32;20019;-77
2023/05/10 13:26:06;;;;;;;8.18;5.10;;;16.10;86.30;;;;;;10893607;32;20398;-75
2023/05/10 13:32:09;;;;;;;6.62;4.40;;;15.90;86.20;;;;;;10887117;32;20077;-72
2023/05/10 13:38:17;;;;;;;7.60;5.05;;;15.90;86.60;;;;;;10905731;32;20027;-73
2023/05/10 13:44:21;;;;;;;8.18;6.22;;;15.90;86.70;;;;;;10902314;32;20305;-72
2023/05/10 13:50:29;;;;;;;8.05;6.25;;;15.90;86.50;;;;;;10900850;32;20325;-74
2023/05/10 13:56:34;;;;;;;10.65;7.70;;;15.80;86.70;;;;;;10890753;32;20046;-74
2023/05/10 14:02:36;;;;;;;7.18;4.37;;;15.70;86.70;;;;;;10904816;32;20019;-73
2023/05/10 14:08:38;;;;;;;6.82;4.95;;;15.70;86.70;;;;;;10904939;32;20043;-75
2023/05/10 14:14:41;;;;;;;6.53;5.00;;;15.70;86.90;;;;;;10903334;32;20062;-73
2023/05/10 14:20:43;;;;;;;7.78;5.72;;;15.70;86.70;;;;;;10904592;32;20019;-72
2023/05/10 14:26:46;;;;;;;8.65;6.53;;;15.70;86.80;;;;;;10893287;32;20031;-75
2023/05/10 14:32:48;;;;;;;8.32;6.68;;;15.60;86.90;;;;;;10853896;32;20051;-72
2023/05/10 14:38:51;;;;;;;9.35;6.28;;;15.60;87.00;;;;;;10865465;32;20051;-74
2023/05/10 14:44:53;;;;;;;6.32;5.40;;;15.60;87.10;;;;;;10867797;32;20015;-75
2023/05/10 14:50:55;;;;;;;7.70;6.05;;;15.50;86.80;;;;;;10866761;32;20050;-74
2023/05/10 14:57:00;;;;;;;7.15;6.37;;;15.50;87.10;;;;;;10862367;32;20020;-74
2023/05/10 15:03:04;;;;;;;11.30;8.73;;;15.60;87.10;;;;;;10867250;32;20402;-73
2023/05/10 15:09:08;;;;;;;7.07;5.62;;;15.60;87.10;;;;;;10852266;32;20028;-75
2023/05/10 15:15:15;;;;;;;9.85;7.65;;;15.50;87.20;;;;;;10870227;32;20042;-73
2023/05/10 15:21:18;;;;;;;7.62;6.20;;;15.50;87.20;;;;;;10858578;32;20397;-74
2023/05/10 15:27:20;;;;;;;10.45;8.18;;;15.50;87.30;;;;;;10873419;32;20026;-73
2023/05/10 15:33:23;;;;;;;10.82;8.43;;;15.50;87.00;;;;;;10873253;32;20020;-74
2023/05/10 15:39:25;;;;;;;9.02;6.80;;;15.40;87.20;;;;;;10871151;32;20028;-74
2023/05/10 15:45:27;;;;;;;12.05;9.23;;;15.30;87.20;;;;;;10872191;32;20015;-74
2023/05/10 15:51:29;;;;;;;9.90;7.85;;;15.30;87.40;;;;;;10888894;27;20468;-73
2023/05/10 15:57:31;;;;;;;8.10;6.87;;;15.30;87.30;;;;;;10895285;32;20338;-73
2023/05/10 16:03:34;;;;;;;11.45;9.85;;;15.30;87.30;;;;;;10909582;32;20053;-75
2023/05/10 16:09:36;;;;;;;11.88;8.10;;;15.30;87.60;;;;;;10909041;32;20027;-72
2023/05/10 16:15:38;;;;;;;9.52;8.48;;;15.20;87.50;;;;;;10889466;32;20034;-71
2023/05/10 16:21:41;;;;;;;11.90;9.20;;;15.20;87.60;;;;;;10878631;32;20074;-73
2023/05/10 16:27:49;;;;;;;12.45;10.50;;;15.20;87.40;;;;;;10907224;32;20394;-74
2023/05/10 16:33:52;;;;;;;13.38;11.98;;;15.20;87.60;;;;;;10892472;32;20053;-74
2023/05/10 16:40:19;;;;;;;10.70;9.45;;;15.20;87.60;;;;;;10890727;32;20019;-75
2023/05/10 16:46:21;;;;;;;10.38;8.70;;;15.10;87.80;;;;;;10906989;32;20019;-74
2023/05/10 16:52:23;;;;;;;9.88;7.97;;;15.00;87.70;;;;;;10893067;32;20023;-73
2023/05/10 16:58:30;;;;;;;17.50;12.35;;;15.00;87.80;;;;;;10892692;32;20047;-73
2023/05/10 17:04:32;;;;;;;11.70;9.65;;;15.00;87.90;;;;;;10904801;32;20325;-76
2023/05/10 17:10:35;;;;;;;10.50;8.93;;;15.00;87.90;;;;;;10904949;32;20357;-75
2023/05/10 17:16:38;;;;;;;12.15;9.52;;;14.90;87.90;;;;;;10887293;32;20036;-73
2023/05/10 17:22:40;;;;;;;12.10;9.63;;;14.90;88.00;;;;;;10904913;32;20360;-76
2023/05/10 17:29:05;;;;;;;10.38;8.77;;;14.90;88.20;;;;;;10905684;32;20428;-73
2023/05/10 17:35:07;;;;;;;12.15;8.88;;;14.90;88.20;;;;;;10905528;32;20061;-75
2023/05/10 17:41:14;;;;;;;10.30;8.93;;;14.90;88.10;;;;;;10905747;32;20211;-75
2023/05/10 17:47:17;;;;;;;11.88;10.68;;;14.90;87.90;;;;;;10889017;32;20027;-73
2023/05/10 17:53:19;;;;;;;9.27;8.25;;;14.80;88.10;;;;;;10905091;32;20076;-74
2023/05/10 17:59:21;;;;;;;9.93;8.88;;;14.80;88.20;;;;;;10906020;32;20397;-73
2023/05/10 18:05:23;;;;;;;8.52;7.18;;;14.80;88.10;;;;;;10891968;32;20023;-75
2023/05/10 18:11:25;;;;;;;10.13;8.57;;;14.80;88.10;;;;;;10904519;32;20015;-76
2023/05/10 18:17:29;;;;;;;11.55;10.35;;;14.80;88.10;;;;;;10904327;32;20419;-73
2023/05/10 18:23:35;;;;;;;9.48;7.72;;;14.70;88.30;;;;;;10901813;32;20345;-77
2023/05/10 18:29:40;;;;;;;11.75;8.70;;;14.80;88.20;;;;;;10887681;32;20472;-74
2023/05/10 18:35:43;;;;;;;10.75;9.18;;;14.70;88.20;;;;;;10904731;32;20023;-73
2023/05/10 18:41:47;;;;;;;12.23;7.95;;;14.70;88.10;;;;;;10902903;32;20031;-74
2023/05/10 18:47:48;;;;;;;9.30;7.65;;;14.70;88.40;;;;;;10905534;32;20043;-74
2023/05/10 18:53:50;;;;;;;11.88;10.57;;;14.70;88.40;;;;;;10910877;32;20390;-73
2023/05/10 19:00:11;;;;;;;13.57;12.15;;;14.70;88.40;;;;;;10905956;32;20027;-77
2023/05/10 19:06:16;;;;;;;11.23;10.00;;;14.70;88.40;;;;;;10911506;32;20023;-76
2023/05/10 19:12:18;;;;;;;11.15;9.65;;;14.70;88.40;;;;;;10896563;32;20032;-76
2023/05/10 19:18:21;;;;;;;10.50;8.05;;;14.60;88.50;;;;;;10892713;32;20039;-75
2023/05/10 19:24:34;;;;;;;9.10;6.93;;;14.60;88.60;;;;;;10910889;32;20024;-73
2023/05/10 19:30:56;;;;;;;7.87;6.87;;;14.60;88.60;;;;;;10894712;32;20385;-76
2023/05/10 19:37:06;;;;;;;8.80;6.78;;;14.70;88.50;;;;;;10909057;32;20023;-74
2023/05/10 19:43:15;;;;;;;9.48;8.13;;;14.70;88.50;;;;;;10906032;32;20050;-72
2023/05/10 19:49:17;;;;;;;9.13;7.65;;;14.70;88.30;;;;;;10907758;32;20035;-72
2023/05/10 19:55:30;;;;;;;9.05;8.13;;;14.60;88.40;;;;;;10908615;32;20385;-75
2023/05/10 20:01:34;;;;;;;11.15;7.80;;;14.60;88.50;;;;;;10906018;32;20345;-74
2023/05/10 20:07:37;;;;;;;7.35;6.05;;;14.60;88.60;;;;;;10908636;32;20023;-74
2023/05/10 20:13:39;;;;;;;5.57;4.62;;;14.60;88.30;;;;;;10908506;32;20059;-76
2023/05/10 20:19:42;;;;;;;8.02;5.75;;;14.50;88.40;;;;;;10895357;32;20019;-76
2023/05/10 20:25:51;;;;;;;7.62;5.82;;;14.50;88.50;;;;;;10894526;32;20042;-75
2023/05/10 20:31:53;;;;;;;7.20;5.68;;;14.50;88.60;;;;;;10893539;32;20031;-76
2023/05/10 20:37:55;;;;;;;9.63;6.07;;;14.50;88.50;;;;;;10907509;32;20024;-74
2023/05/10 20:43:57;;;;;;;9.30;6.90;;;14.40;88.50;;;;;;10903808;32;20200;-77
2023/05/10 20:50:00;;;;;;;5.45;4.57;;;14.50;88.80;;;;;;10907535;32;20077;-74
2023/05/10 20:56:02;;;;;;;6.00;4.87;;;14.50;88.60;;;;;;10906833;32;20432;-74
2023/05/10 21:02:04;;;;;;;7.05;4.57;;;14.50;88.70;;;;;;10892777;32;20057;-73
2023/05/10 21:08:22;;;;;;;6.00;4.07;;;14.40;88.70;;;;;;10906336;32;20015;-73
2023/05/10 21:14:48;;;;;;;5.57;3.40;;;14.40;88.70;;;;;;10905325;32;20081;-74
2023/05/10 21:20:50;;;;;;;6.12;3.50;;;14.40;88.80;;;;;;10905447;32;20046;-74
2023/05/10 21:26:54;;;;;;;6.22;4.78;;;14.40;88.80;;;;;;10901178;32;20032;-76
2023/05/10 21:33:18;;;;;;;8.77;5.37;;;14.40;88.60;;;;;;10891610;32;20027;-76
2023/05/10 21:39:23;;;;;;;3.78;3.08;;;14.40;88.80;;;;;;10904239;32;20031;-73
2023/05/10 21:45:31;;;;;;;3.83;3.15;;;14.50;88.90;;;;;;10904944;32;20043;-73
2023/05/10 21:51:35;;;;;;;6.18;4.45;;;14.40;88.80;;;;;;10890997;32;20031;-74
2023/05/10 21:57:43;;;;;;;6.57;4.40;;;14.40;88.60;;;;;;10902296;32;20027;-73
2023/05/10 22:03:49;;;;;;;6.00;4.82;;;14.40;88.70;;;;;;10905262;32;20055;-73
2023/05/10 22:09:51;;;;;;;6.03;3.92;;;14.30;88.80;;;;;;10905225;32;20046;-75
2023/05/10 22:15:55;;;;;;;4.60;3.58;;;14.30;89.00;;;;;;10904071;32;20027;-75
2023/05/10 22:22:01;;;;;;;5.53;3.62;;;14.30;88.90;;;;;;10891853;32;20085;-76
2023/05/10 22:28:11;;;;;;;4.03;3.00;;;14.30;88.90;;;;;;10912287;32;20428;-73
2023/05/10 22:34:17;;;;;;;7.00;5.28;;;14.30;88.80;;;;;;10912336;32;20390;-75
2023/05/10 22:40:32;;;;;;;7.15;3.80;;;14.30;88.80;;;;;;10911625;32;20382;-76
2023/05/10 22:46:37;;;;;;;4.75;3.85;;;14.30;88.90;;;;;;10895233;32;20019;-78
2023/05/10 22:52:41;;;;;;;5.00;3.85;;;14.30;88.80;;;;;;10883706;32;20073;-77
2023/05/10 22:58:43;;;;;;;4.74;3.82;;;14.30;88.90;;;;;;10911539;32;20272;-78
2023/05/10 23:04:46;;;;;;;11.05;3.53;;;14.20;88.90;;;;;;10910675;32;20027;-76
2023/05/10 23:10:48;;;;;;;3.40;2.50;;;14.20;89.00;;;;;;10896716;32;20019;-73
2023/05/10 23:16:50;;;;;;;3.22;2.65;;;14.20;89.00;;;;;;10910075;32;20031;-75
2023/05/10 23:23:26;;;;;;;3.80;2.35;;;14.30;88.90;;;;;;10895190;32;20054;-74
2023/05/10 23:29:28;;;;;;;3.83;2.58;;;14.20;88.70;;;;;;10910475;32;20046;-75
2023/05/10 23:35:30;;;;;;;3.45;2.95;;;14.20;88.90;;;;;;10906266;32;20018;-73
2023/05/10 23:41:32;;;;;;;1.98;1.73;;;14.20;88.90;;;;;;10906663;32;20401;-75
2023/05/10 23:47:35;;;;;;;1.42;1.30;;;14.20;88.80;;;;;;10905878;32;20397;-75
2023/05/10 23:53:37;;;;;;;2.00;1.52;;;14.20;88.80;;;;;;10912189;27;20035;-74
2023/05/10 23:59:39;;;;;;;1.98;1.60;;;14.10;89.00;;;;;;10909028;32;20045;-75
